sensor_id;sensor_type;location;lat;lon;timestamp;P1;durP1;ratioP1;P2;durP2;ratioP2
53801;SDS011;39709;53.334;6.534;2022-07-23T00:00:31;9.20;;;2.83;;
53801;SDS011;39709;53.334;6.534;2022-07-23T00:02:57;7.07;;;3.03;;
53801;SDS011;39709;53.334;6.534;2022-07-23T00:05:23;7.93;;;2.95;;
53801;SDS011;39709;53.334;6.534;2022-07-23T00:07:48;10.70;;;3.40;;
53801;SDS011;39709;53.334;6.534;2022-07-23T00:10:14;8.80;;;3.47;;
53801;SDS011;39709;53.334;6.534;2022-07-23T00:12:40;9.43;;;3.35;;
53801;SDS011;39709;53.334;6.534;2022-07-23T00:15:06;10.00;;;3.20;;
53801;SDS011;39709;53.334;6.534;2022-07-23T00:17:33;8.55;;;3.20;;
53801;SDS011;39709;53.334;6.534;2022-07-23T00:19:59;12.10;;;3.67;;
53801;SDS011;39709;53.334;6.534;2022-07-23T00:22:25;9.85;;;3.05;;
53801;SDS011;39709;53.334;6.534;2022-07-23T00:24:51;9.00;;;3.40;;
53801;SDS011;39709;53.334;6.534;2022-07-23T00:27:16;7.77;;;2.83;;
53801;SDS011;39709;53.334;6.534;2022-07-23T00:29:42;7.47;;;3.03;;
53801;SDS011;39709;53.334;6.534;2022-07-23T00:32:08;6.68;;;2.83;;
53801;SDS011;39709;53.334;6.534;2022-07-23T00:34:33;6.60;;;2.80;;
53801;SDS011;39709;53.334;6.534;2022-07-23T00:36:59;7.47;;;2.95;;
53801;SDS011;39709;53.334;6.534;2022-07-23T00:39:25;8.50;;;3.60;;
53801;SDS011;39709;53.334;6.534;2022-07-23T00:41:51;7.28;;;3.20;;
53801;SDS011;39709;53.334;6.534;2022-07-23T00:44:21;9.15;;;3.42;;
53801;SDS011;39709;53.334;6.534;2022-07-23T00:46:50;10.60;;;3.43;;
53801;SDS011;39709;53.334;6.534;2022-07-23T00:49:26;10.00;;;3.40;;
53801;SDS011;39709;53.334;6.534;2022-07-23T00:51:54;7.97;;;3.03;;
53801;SDS011;39709;53.334;6.534;2022-07-23T00:54:25;9.00;;;3.08;;
53801;SDS011;39709;53.334;6.534;2022-07-23T00:56:52;7.95;;;2.95;;
53801;SDS011;39709;53.334;6.534;2022-07-23T00:59:18;9.23;;;2.97;;
53801;SDS011;39709;53.334;6.534;2022-07-23T01:01:44;9.90;;;3.22;;
53801;SDS011;39709;53.334;6.534;2022-07-23T01:04:12;10.23;;;3.08;;
53801;SDS011;39709;53.334;6.534;2022-07-23T01:06:40;8.15;;;3.28;;
53801;SDS011;39709;53.334;6.534;2022-07-23T01:09:06;10.67;;;2.90;;
53801;SDS011;39709;53.334;6.534;2022-07-23T01:11:35;10.38;;;3.15;;
53801;SDS011;39709;53.334;6.534;2022-07-23T01:14:09;8.00;;;2.92;;
53801;SDS011;39709;53.334;6.534;2022-07-23T01:16:42;7.75;;;3.25;;
53801;SDS011;39709;53.334;6.534;2022-07-23T01:19:08;8.25;;;3.10;;
53801;SDS011;39709;53.334;6.534;2022-07-23T01:21:39;8.03;;;3.23;;
53801;SDS011;39709;53.334;6.534;2022-07-23T01:24:06;8.32;;;3.22;;
53801;SDS011;39709;53.334;6.534;2022-07-23T01:26:33;8.55;;;2.83;;
53801;SDS011;39709;53.334;6.534;2022-07-23T01:28:59;8.95;;;3.10;;
53801;SDS011;39709;53.334;6.534;2022-07-23T01:31:25;8.43;;;2.83;;
53801;SDS011;39709;53.334;6.534;2022-07-23T01:33:51;10.07;;;3.00;;
53801;SDS011;39709;53.334;6.534;2022-07-23T01:36:17;11.23;;;2.92;;
53801;SDS011;39709;53.334;6.534;2022-07-23T01:38:43;9.63;;;3.33;;
53801;SDS011;39709;53.334;6.534;2022-07-23T01:41:08;8.57;;;3.13;;
53801;SDS011;39709;53.334;6.534;2022-07-23T01:43:34;8.47;;;3.33;;
53801;SDS011;39709;53.334;6.534;2022-07-23T01:46:00;8.38;;;2.85;;
53801;SDS011;39709;53.334;6.534;2022-07-23T01:48:26;10.10;;;3.70;;
53801;SDS011;39709;53.334;6.534;2022-07-23T01:50:51;9.15;;;3.28;;
53801;SDS011;39709;53.334;6.534;2022-07-23T01:53:17;9.37;;;3.40;;
53801;SDS011;39709;53.334;6.534;2022-07-23T01:55:43;10.38;;;3.50;;
53801;SDS011;39709;53.334;6.534;2022-07-23T01:58:08;10.25;;;3.97;;
53801;SDS011;39709;53.334;6.534;2022-07-23T02:00:34;10.17;;;3.50;;
53801;SDS011;39709;53.334;6.534;2022-07-23T02:03:00;9.45;;;3.35;;
53801;SDS011;39709;53.334;6.534;2022-07-23T02:05:26;9.40;;;3.77;;
53801;SDS011;39709;53.334;6.534;2022-07-23T02:07:54;7.75;;;3.63;;
53801;SDS011;39709;53.334;6.534;2022-07-23T02:10:20;11.60;;;3.42;;
53801;SDS011;39709;53.334;6.534;2022-07-23T02:12:46;8.52;;;3.55;;
53801;SDS011;39709;53.334;6.534;2022-07-23T02:15:12;8.10;;;3.20;;
53801;SDS011;39709;53.334;6.534;2022-07-23T02:17:38;9.20;;;3.53;;
53801;SDS011;39709;53.334;6.534;2022-07-23T02:20:04;9.87;;;3.50;;
53801;SDS011;39709;53.334;6.534;2022-07-23T02:22:31;9.55;;;3.80;;
53801;SDS011;39709;53.334;6.534;2022-07-23T02:24:57;12.48;;;4.05;;
53801;SDS011;39709;53.334;6.534;2022-07-23T02:27:23;10.97;;;3.50;;
53801;SDS011;39709;53.334;6.534;2022-07-23T02:29:49;9.50;;;4.10;;
53801;SDS011;39709;53.334;6.534;2022-07-23T02:32:15;9.50;;;4.05;;
53801;SDS011;39709;53.334;6.534;2022-07-23T02:34:40;8.67;;;3.73;;
53801;SDS011;39709;53.334;6.534;2022-07-23T02:37:06;8.77;;;3.53;;
53801;SDS011;39709;53.334;6.534;2022-07-23T02:39:33;8.85;;;3.50;;
53801;SDS011;39709;53.334;6.534;2022-07-23T02:42:02;8.23;;;3.55;;
53801;SDS011;39709;53.334;6.534;2022-07-23T02:44:28;10.57;;;3.53;;
53801;SDS011;39709;53.334;6.534;2022-07-23T02:46:54;9.90;;;3.60;;
53801;SDS011;39709;53.334;6.534;2022-07-23T02:49:19;10.87;;;3.87;;
53801;SDS011;39709;53.334;6.534;2022-07-23T02:51:45;10.87;;;4.13;;
53801;SDS011;39709;53.334;6.534;2022-07-23T02:54:11;9.40;;;3.72;;
53801;SDS011;39709;53.334;6.534;2022-07-23T02:56:36;8.77;;;3.40;;
53801;SDS011;39709;53.334;6.534;2022-07-23T02:59:02;8.48;;;3.40;;
53801;SDS011;39709;53.334;6.534;2022-07-23T03:01:27;8.63;;;3.87;;
53801;SDS011;39709;53.334;6.534;2022-07-23T03:03:53;8.82;;;3.58;;
53801;SDS011;39709;53.334;6.534;2022-07-23T03:06:19;8.63;;;3.40;;
53801;SDS011;39709;53.334;6.534;2022-07-23T03:08:44;9.47;;;3.50;;
53801;SDS011;39709;53.334;6.534;2022-07-23T03:11:10;10.23;;;3.17;;
53801;SDS011;39709;53.334;6.534;2022-07-23T03:13:40;17.10;;;3.53;;
53801;SDS011;39709;53.334;6.534;2022-07-23T03:16:06;9.20;;;3.28;;
53801;SDS011;39709;53.334;6.534;2022-07-23T03:18:32;9.23;;;2.92;;
53801;SDS011;39709;53.334;6.534;2022-07-23T03:20:58;9.80;;;2.75;;
53801;SDS011;39709;53.334;6.534;2022-07-23T03:23:24;8.00;;;2.80;;
53801;SDS011;39709;53.334;6.534;2022-07-23T03:25:50;7.13;;;2.90;;
53801;SDS011;39709;53.334;6.534;2022-07-23T03:28:16;7.57;;;2.70;;
53801;SDS011;39709;53.334;6.534;2022-07-23T03:30:46;9.77;;;2.50;;
53801;SDS011;39709;53.334;6.534;2022-07-23T03:33:13;8.65;;;2.70;;
53801;SDS011;39709;53.334;6.534;2022-07-23T03:35:40;7.40;;;2.65;;
53801;SDS011;39709;53.334;6.534;2022-07-23T03:38:05;7.72;;;2.92;;
53801;SDS011;39709;53.334;6.534;2022-07-23T03:40:31;10.73;;;3.47;;
53801;SDS011;39709;53.334;6.534;2022-07-23T03:42:57;8.67;;;2.80;;
53801;SDS011;39709;53.334;6.534;2022-07-23T03:45:22;8.67;;;3.30;;
53801;SDS011;39709;53.334;6.534;2022-07-23T03:47:48;7.68;;;2.92;;
53801;SDS011;39709;53.334;6.534;2022-07-23T03:50:14;8.37;;;2.87;;
53801;SDS011;39709;53.334;6.534;2022-07-23T03:52:39;8.82;;;2.70;;
53801;SDS011;39709;53.334;6.534;2022-07-23T03:55:05;7.00;;;2.87;;
53801;SDS011;39709;53.334;6.534;2022-07-23T03:57:31;8.50;;;3.38;;
53801;SDS011;39709;53.334;6.534;2022-07-23T03:59:57;8.80;;;3.50;;
53801;SDS011;39709;53.334;6.534;2022-07-23T04:02:23;8.70;;;2.83;;
53801;SDS011;39709;53.334;6.534;2022-07-23T04:04:49;6.93;;;2.73;;
53801;SDS011;39709;53.334;6.534;2022-07-23T04:07:15;8.93;;;3.83;;
53801;SDS011;39709;53.334;6.534;2022-07-23T04:09:42;9.35;;;3.08;;
53801;SDS011;39709;53.334;6.534;2022-07-23T04:12:08;9.90;;;2.88;;
53801;SDS011;39709;53.334;6.534;2022-07-23T04:14:34;8.47;;;2.77;;
53801;SDS011;39709;53.334;6.534;2022-07-23T04:17:00;9.27;;;3.05;;
53801;SDS011;39709;53.334;6.534;2022-07-23T04:19:26;7.80;;;2.90;;
53801;SDS011;39709;53.334;6.534;2022-07-23T04:21:52;8.25;;;2.92;;
53801;SDS011;39709;53.334;6.534;2022-07-23T04:24:18;11.88;;;2.92;;
53801;SDS011;39709;53.334;6.534;2022-07-23T04:26:44;8.50;;;3.30;;
53801;SDS011;39709;53.334;6.534;2022-07-23T04:29:10;7.80;;;2.70;;
53801;SDS011;39709;53.334;6.534;2022-07-23T04:31:36;10.80;;;3.00;;
53801;SDS011;39709;53.334;6.534;2022-07-23T04:34:02;10.60;;;2.95;;
53801;SDS011;39709;53.334;6.534;2022-07-23T04:36:27;8.20;;;3.53;;
53801;SDS011;39709;53.334;6.534;2022-07-23T04:38:53;9.68;;;3.10;;
53801;SDS011;39709;53.334;6.534;2022-07-23T04:41:19;9.67;;;3.30;;
53801;SDS011;39709;53.334;6.534;2022-07-23T04:43:45;7.80;;;2.90;;
53801;SDS011;39709;53.334;6.534;2022-07-23T04:46:11;9.82;;;3.25;;
53801;SDS011;39709;53.334;6.534;2022-07-23T04:48:37;6.20;;;2.50;;
53801;SDS011;39709;53.334;6.534;2022-07-23T04:51:03;7.10;;;2.67;;
53801;SDS011;39709;53.334;6.534;2022-07-23T04:53:29;8.15;;;2.70;;
53801;SDS011;39709;53.334;6.534;2022-07-23T04:55:55;7.27;;;2.43;;
53801;SDS011;39709;53.334;6.534;2022-07-23T04:58:21;8.13;;;2.90;;
53801;SDS011;39709;53.334;6.534;2022-07-23T05:00:47;10.50;;;2.83;;
53801;SDS011;39709;53.334;6.534;2022-07-23T05:03:13;7.32;;;2.95;;
53801;SDS011;39709;53.334;6.534;2022-07-23T05:05:39;7.72;;;2.72;;
53801;SDS011;39709;53.334;6.534;2022-07-23T05:08:04;9.03;;;3.10;;
53801;SDS011;39709;53.334;6.534;2022-07-23T05:10:30;6.63;;;2.50;;
53801;SDS011;39709;53.334;6.534;2022-07-23T05:12:56;7.80;;;2.90;;
53801;SDS011;39709;53.334;6.534;2022-07-23T05:15:22;7.53;;;3.00;;
53801;SDS011;39709;53.334;6.534;2022-07-23T05:17:48;9.50;;;2.53;;
53801;SDS011;39709;53.334;6.534;2022-07-23T05:20:13;7.82;;;2.80;;
53801;SDS011;39709;53.334;6.534;2022-07-23T05:22:39;8.65;;;2.65;;
53801;SDS011;39709;53.334;6.534;2022-07-23T05:25:05;6.13;;;2.63;;
53801;SDS011;39709;53.334;6.534;2022-07-23T05:27:32;8.63;;;2.15;;
53801;SDS011;39709;53.334;6.534;2022-07-23T05:29:57;10.07;;;3.20;;
53801;SDS011;39709;53.334;6.534;2022-07-23T05:32:23;7.57;;;2.30;;
53801;SDS011;39709;53.334;6.534;2022-07-23T05:34:49;7.10;;;2.55;;
53801;SDS011;39709;53.334;6.534;2022-07-23T05:37:15;5.93;;;2.53;;
53801;SDS011;39709;53.334;6.534;2022-07-23T05:39:41;7.28;;;2.60;;
53801;SDS011;39709;53.334;6.534;2022-07-23T05:42:06;7.43;;;2.33;;
53801;SDS011;39709;53.334;6.534;2022-07-23T05:44:32;6.10;;;2.30;;
53801;SDS011;39709;53.334;6.534;2022-07-23T05:46:58;7.38;;;2.30;;
53801;SDS011;39709;53.334;6.534;2022-07-23T05:49:24;6.22;;;2.25;;
53801;SDS011;39709;53.334;6.534;2022-07-23T05:51:50;7.70;;;2.80;;
53801;SDS011;39709;53.334;6.534;2022-07-23T05:54:16;5.78;;;2.33;;
53801;SDS011;39709;53.334;6.534;2022-07-23T05:56:41;8.87;;;2.43;;
53801;SDS011;39709;53.334;6.534;2022-07-23T05:59:07;5.63;;;1.70;;
53801;SDS011;39709;53.334;6.534;2022-07-23T06:01:33;6.97;;;2.07;;
53801;SDS011;39709;53.334;6.534;2022-07-23T06:03:59;6.50;;;2.23;;
53801;SDS011;39709;53.334;6.534;2022-07-23T06:06:24;6.13;;;1.97;;
53801;SDS011;39709;53.334;6.534;2022-07-23T06:08:50;7.03;;;2.23;;
53801;SDS011;39709;53.334;6.534;2022-07-23T06:11:15;5.17;;;2.00;;
53801;SDS011;39709;53.334;6.534;2022-07-23T06:13:41;6.05;;;2.30;;
53801;SDS011;39709;53.334;6.534;2022-07-23T06:16:07;6.73;;;2.20;;
53801;SDS011;39709;53.334;6.534;2022-07-23T06:18:32;6.43;;;1.95;;
53801;SDS011;39709;53.334;6.534;2022-07-23T06:20:58;4.37;;;1.47;;
53801;SDS011;39709;53.334;6.534;2022-07-23T06:23:24;4.85;;;1.58;;
53801;SDS011;39709;53.334;6.534;2022-07-23T06:25:49;6.93;;;1.93;;
53801;SDS011;39709;53.334;6.534;2022-07-23T06:28:15;5.25;;;1.42;;
53801;SDS011;39709;53.334;6.534;2022-07-23T06:30:41;5.37;;;1.50;;
53801;SDS011;39709;53.334;6.534;2022-07-23T06:33:07;7.45;;;1.75;;
53801;SDS011;39709;53.334;6.534;2022-07-23T06:35:33;4.10;;;1.00;;
53801;SDS011;39709;53.334;6.534;2022-07-23T06:37:58;8.20;;;1.60;;
53801;SDS011;39709;53.334;6.534;2022-07-23T06:40:24;7.93;;;1.20;;
53801;SDS011;39709;53.334;6.534;2022-07-23T06:42:50;6.97;;;1.70;;
53801;SDS011;39709;53.334;6.534;2022-07-23T06:45:16;3.13;;;0.80;;
53801;SDS011;39709;53.334;6.534;2022-07-23T06:47:42;3.03;;;0.60;;
53801;SDS011;39709;53.334;6.534;2022-07-23T06:50:08;5.67;;;0.90;;
53801;SDS011;39709;53.334;6.534;2022-07-23T06:52:34;3.25;;;0.60;;
53801;SDS011;39709;53.334;6.534;2022-07-23T06:55:00;3.20;;;0.57;;
53801;SDS011;39709;53.334;6.534;2022-07-23T06:57:26;6.97;;;0.60;;
53801;SDS011;39709;53.334;6.534;2022-07-23T06:59:51;2.97;;;0.60;;
53801;SDS011;39709;53.334;6.534;2022-07-23T07:02:17;2.35;;;0.50;;
53801;SDS011;39709;53.334;6.534;2022-07-23T07:04:43;4.13;;;0.50;;
53801;SDS011;39709;53.334;6.534;2022-07-23T07:07:09;3.83;;;0.40;;
53801;SDS011;39709;53.334;6.534;2022-07-23T07:09:34;6.93;;;0.60;;
53801;SDS011;39709;53.334;6.534;2022-07-23T07:12:00;2.77;;;0.47;;
53801;SDS011;39709;53.334;6.534;2022-07-23T07:14:26;2.40;;;0.60;;
53801;SDS011;39709;53.334;6.534;2022-07-23T07:16:52;3.42;;;0.50;;
53801;SDS011;39709;53.334;6.534;2022-07-23T07:19:18;2.47;;;0.50;;
53801;SDS011;39709;53.334;6.534;2022-07-23T07:21:43;1.75;;;0.30;;
53801;SDS011;39709;53.334;6.534;2022-07-23T07:24:09;3.23;;;0.40;;
53801;SDS011;39709;53.334;6.534;2022-07-23T07:26:35;2.35;;;0.40;;
53801;SDS011;39709;53.334;6.534;2022-07-23T07:29:00;2.20;;;0.40;;
53801;SDS011;39709;53.334;6.534;2022-07-23T07:31:26;2.27;;;0.40;;
53801;SDS011;39709;53.334;6.534;2022-07-23T07:33:52;2.00;;;0.40;;
53801;SDS011;39709;53.334;6.534;2022-07-23T07:36:18;2.53;;;0.40;;
53801;SDS011;39709;53.334;6.534;2022-07-23T07:38:44;2.25;;;0.40;;
53801;SDS011;39709;53.334;6.534;2022-07-23T07:41:09;2.57;;;0.50;;
53801;SDS011;39709;53.334;6.534;2022-07-23T07:43:35;2.75;;;0.40;;
53801;SDS011;39709;53.334;6.534;2022-07-23T07:46:02;1.73;;;0.30;;
53801;SDS011;39709;53.334;6.534;2022-07-23T07:48:29;2.45;;;0.60;;
53801;SDS011;39709;53.334;6.534;2022-07-23T07:50:54;2.70;;;0.60;;
53801;SDS011;39709;53.334;6.534;2022-07-23T07:53:20;2.40;;;0.40;;
53801;SDS011;39709;53.334;6.534;2022-07-23T07:55:46;4.23;;;0.40;;
53801;SDS011;39709;53.334;6.534;2022-07-23T07:58:11;2.40;;;0.60;;
53801;SDS011;39709;53.334;6.534;2022-07-23T08:00:37;3.30;;;0.40;;
53801;SDS011;39709;53.334;6.534;2022-07-23T08:03:03;6.60;;;0.40;;
53801;SDS011;39709;53.334;6.534;2022-07-23T08:05:29;1.97;;;0.50;;
53801;SDS011;39709;53.334;6.534;2022-07-23T08:07:56;3.90;;;0.60;;
53801;SDS011;39709;53.334;6.534;2022-07-23T08:10:24;3.58;;;0.55;;
53801;SDS011;39709;53.334;6.534;2022-07-23T08:12:52;2.50;;;0.40;;
53801;SDS011;39709;53.334;6.534;2022-07-23T08:15:19;4.53;;;0.50;;
53801;SDS011;39709;53.334;6.534;2022-07-23T08:17:46;3.17;;;0.50;;
53801;SDS011;39709;53.334;6.534;2022-07-23T08:20:13;2.95;;;0.60;;
53801;SDS011;39709;53.334;6.534;2022-07-23T08:22:56;5.10;;;0.80;;
53801;SDS011;39709;53.334;6.534;2022-07-23T08:25:30;2.83;;;0.60;;
53801;SDS011;39709;53.334;6.534;2022-07-23T08:27:58;2.15;;;0.52;;
53801;SDS011;39709;53.334;6.534;2022-07-23T08:30:24;3.53;;;0.60;;
53801;SDS011;39709;53.334;6.534;2022-07-23T08:32:57;3.22;;;0.50;;
53801;SDS011;39709;53.334;6.534;2022-07-23T08:35:30;1.90;;;0.50;;
53801;SDS011;39709;53.334;6.534;2022-07-23T08:37:59;3.73;;;0.50;;
53801;SDS011;39709;53.334;6.534;2022-07-23T08:40:28;3.10;;;0.50;;
53801;SDS011;39709;53.334;6.534;2022-07-23T08:42:55;2.35;;;0.50;;
53801;SDS011;39709;53.334;6.534;2022-07-23T08:45:21;2.55;;;0.40;;
53801;SDS011;39709;53.334;6.534;2022-07-23T08:47:56;1.92;;;0.40;;
53801;SDS011;39709;53.334;6.534;2022-07-23T08:50:25;4.83;;;0.60;;
53801;SDS011;39709;53.334;6.534;2022-07-23T08:52:52;2.47;;;0.50;;
53801;SDS011;39709;53.334;6.534;2022-07-23T08:55:21;2.65;;;0.50;;
53801;SDS011;39709;53.334;6.534;2022-07-23T08:57:48;2.15;;;0.40;;
53801;SDS011;39709;53.334;6.534;2022-07-23T09:00:16;2.25;;;0.45;;
53801;SDS011;39709;53.334;6.534;2022-07-23T09:02:43;2.10;;;0.50;;
53801;SDS011;39709;53.334;6.534;2022-07-23T09:05:10;4.53;;;0.70;;
53801;SDS011;39709;53.334;6.534;2022-07-23T09:07:37;2.65;;;0.40;;
53801;SDS011;39709;53.334;6.534;2022-07-23T09:10:23;5.28;;;0.60;;
53801;SDS011;39709;53.334;6.534;2022-07-23T09:12:48;5.20;;;0.80;;
53801;SDS011;39709;53.334;6.534;2022-07-23T09:15:14;2.65;;;0.50;;
53801;SDS011;39709;53.334;6.534;2022-07-23T09:17:41;6.40;;;0.70;;
53801;SDS011;39709;53.334;6.534;2022-07-23T09:20:12;4.15;;;0.57;;
53801;SDS011;39709;53.334;6.534;2022-07-23T09:22:44;3.17;;;0.50;;
53801;SDS011;39709;53.334;6.534;2022-07-23T09:25:17;4.50;;;0.60;;
53801;SDS011;39709;53.334;6.534;2022-07-23T09:27:54;4.28;;;0.50;;
53801;SDS011;39709;53.334;6.534;2022-07-23T09:30:25;2.55;;;0.52;;
53801;SDS011;39709;53.334;6.534;2022-07-23T09:33:07;2.60;;;0.50;;
53801;SDS011;39709;53.334;6.534;2022-07-23T09:35:49;3.25;;;0.60;;
53801;SDS011;39709;53.334;6.534;2022-07-23T09:38:16;3.43;;;0.60;;
53801;SDS011;39709;53.334;6.534;2022-07-23T09:40:44;3.55;;;0.57;;
53801;SDS011;39709;53.334;6.534;2022-07-23T09:43:11;2.35;;;0.52;;
53801;SDS011;39709;53.334;6.534;2022-07-23T09:45:52;1.60;;;0.40;;
53801;SDS011;39709;53.334;6.534;2022-07-23T09:48:18;7.33;;;0.97;;
53801;SDS011;39709;53.334;6.534;2022-07-23T09:50:44;2.88;;;0.57;;
53801;SDS011;39709;53.334;6.534;2022-07-23T09:53:23;5.70;;;0.80;;
53801;SDS011;39709;53.334;6.534;2022-07-23T09:55:51;2.42;;;0.50;;
53801;SDS011;39709;53.334;6.534;2022-07-23T09:58:19;3.83;;;0.50;;
53801;SDS011;39709;53.334;6.534;2022-07-23T10:00:47;3.03;;;0.60;;
53801;SDS011;39709;53.334;6.534;2022-07-23T10:03:14;4.38;;;0.82;;
53801;SDS011;39709;53.334;6.534;2022-07-23T10:05:41;3.65;;;0.50;;
53801;SDS011;39709;53.334;6.534;2022-07-23T10:08:10;2.25;;;0.50;;
53801;SDS011;39709;53.334;6.534;2022-07-23T10:10:40;1.70;;;0.50;;
53801;SDS011;39709;53.334;6.534;2022-07-23T10:13:07;5.82;;;0.77;;
53801;SDS011;39709;53.334;6.534;2022-07-23T10:15:36;3.72;;;0.57;;
53801;SDS011;39709;53.334;6.534;2022-07-23T10:18:04;2.90;;;0.60;;
53801;SDS011;39709;53.334;6.534;2022-07-23T10:20:31;3.15;;;0.60;;
53801;SDS011;39709;53.334;6.534;2022-07-23T10:23:02;3.30;;;0.50;;
53801;SDS011;39709;53.334;6.534;2022-07-23T10:25:51;3.38;;;0.90;;
53801;SDS011;39709;53.334;6.534;2022-07-23T10:31:09;3.77;;;0.70;;
53801;SDS011;39709;53.334;6.534;2022-07-23T10:33:45;3.83;;;0.70;;
53801;SDS011;39709;53.334;6.534;2022-07-23T10:41:40;4.05;;;0.80;;
53801;SDS011;39709;53.334;6.534;2022-07-23T10:44:07;3.77;;;0.60;;
53801;SDS011;39709;53.334;6.534;2022-07-23T10:46:53;5.93;;;0.80;;
53801;SDS011;39709;53.334;6.534;2022-07-23T10:49:38;1.70;;;0.43;;
53801;SDS011;39709;53.334;6.534;2022-07-23T10:54:39;2.58;;;0.60;;
53801;SDS011;39709;53.334;6.534;2022-07-23T10:57:13;3.40;;;0.60;;
53801;SDS011;39709;53.334;6.534;2022-07-23T11:02:40;3.95;;;0.60;;
53801;SDS011;39709;53.334;6.534;2022-07-23T11:05:08;2.45;;;0.52;;
53801;SDS011;39709;53.334;6.534;2022-07-23T11:07:35;2.75;;;0.70;;
53801;SDS011;39709;53.334;6.534;2022-07-23T11:26:41;3.33;;;0.60;;
53801;SDS011;39709;53.334;6.534;2022-07-23T11:34:43;2.38;;;0.40;;
53801;SDS011;39709;53.334;6.534;2022-07-23T11:40:00;4.13;;;0.70;;
53801;SDS011;39709;53.334;6.534;2022-07-23T11:42:29;1.67;;;0.43;;
53801;SDS011;39709;53.334;6.534;2022-07-23T11:44:54;2.90;;;0.50;;
53801;SDS011;39709;53.334;6.534;2022-07-23T11:47:21;3.55;;;0.50;;
53801;SDS011;39709;53.334;6.534;2022-07-23T11:49:53;3.60;;;0.57;;
53801;SDS011;39709;53.334;6.534;2022-07-23T11:52:20;3.45;;;0.68;;
53801;SDS011;39709;53.334;6.534;2022-07-23T11:54:47;3.45;;;0.70;;
53801;SDS011;39709;53.334;6.534;2022-07-23T11:57:13;4.77;;;0.80;;
53801;SDS011;39709;53.334;6.534;2022-07-23T11:59:40;2.50;;;0.63;;
53801;SDS011;39709;53.334;6.534;2022-07-23T12:02:07;3.58;;;0.68;;
53801;SDS011;39709;53.334;6.534;2022-07-23T12:09:58;5.53;;;0.70;;
53801;SDS011;39709;53.334;6.534;2022-07-23T12:12:26;6.07;;;0.70;;
53801;SDS011;39709;53.334;6.534;2022-07-23T12:14:56;4.15;;;0.75;;
53801;SDS011;39709;53.334;6.534;2022-07-23T12:17:27;4.32;;;0.85;;
53801;SDS011;39709;53.334;6.534;2022-07-23T12:19:56;4.27;;;0.60;;
53801;SDS011;39709;53.334;6.534;2022-07-23T12:22:23;7.72;;;1.15;;
53801;SDS011;39709;53.334;6.534;2022-07-23T12:24:55;7.72;;;0.70;;
53801;SDS011;39709;53.334;6.534;2022-07-23T12:27:22;4.75;;;0.80;;
53801;SDS011;39709;53.334;6.534;2022-07-23T12:29:49;4.22;;;0.80;;
53801;SDS011;39709;53.334;6.534;2022-07-23T12:34:48;5.75;;;0.85;;
53801;SDS011;39709;53.334;6.534;2022-07-23T12:42:55;3.50;;;0.70;;
53801;SDS011;39709;53.334;6.534;2022-07-23T12:45:23;3.60;;;0.70;;
53801;SDS011;39709;53.334;6.534;2022-07-23T12:47:53;2.90;;;0.70;;
53801;SDS011;39709;53.334;6.534;2022-07-23T12:50:37;1.95;;;0.60;;
53801;SDS011;39709;53.334;6.534;2022-07-23T12:53:15;2.35;;;0.60;;
53801;SDS011;39709;53.334;6.534;2022-07-23T12:55:43;4.53;;;0.80;;
53801;SDS011;39709;53.334;6.534;2022-07-23T12:58:20;5.80;;;0.60;;
53801;SDS011;39709;53.334;6.534;2022-07-23T13:05:59;4.30;;;0.80;;
53801;SDS011;39709;53.334;6.534;2022-07-23T13:08:27;4.25;;;0.70;;
53801;SDS011;39709;53.334;6.534;2022-07-23T13:10:54;3.53;;;0.80;;
53801;SDS011;39709;53.334;6.534;2022-07-23T13:13:21;4.90;;;0.70;;
53801;SDS011;39709;53.334;6.534;2022-07-23T13:15:48;3.65;;;0.90;;
53801;SDS011;39709;53.334;6.534;2022-07-23T13:18:14;4.90;;;1.05;;
53801;SDS011;39709;53.334;6.534;2022-07-23T13:20:40;3.77;;;0.67;;
53801;SDS011;39709;53.334;6.534;2022-07-23T13:23:06;4.78;;;0.90;;
53801;SDS011;39709;53.334;6.534;2022-07-23T13:25:32;4.53;;;0.95;;
53801;SDS011;39709;53.334;6.534;2022-07-23T13:27:58;3.90;;;0.70;;
53801;SDS011;39709;53.334;6.534;2022-07-23T13:30:24;3.63;;;1.10;;
53801;SDS011;39709;53.334;6.534;2022-07-23T13:32:50;2.77;;;0.73;;
53801;SDS011;39709;53.334;6.534;2022-07-23T13:35:16;3.47;;;0.90;;
53801;SDS011;39709;53.334;6.534;2022-07-23T13:37:41;5.65;;;0.90;;
53801;SDS011;39709;53.334;6.534;2022-07-23T13:40:07;3.17;;;0.60;;
53801;SDS011;39709;53.334;6.534;2022-07-23T13:42:33;2.88;;;0.70;;
53801;SDS011;39709;53.334;6.534;2022-07-23T13:44:59;2.57;;;0.73;;
53801;SDS011;39709;53.334;6.534;2022-07-23T13:47:24;4.07;;;0.90;;
53801;SDS011;39709;53.334;6.534;2022-07-23T13:49:50;4.32;;;0.90;;
53801;SDS011;39709;53.334;6.534;2022-07-23T13:52:16;4.17;;;1.00;;
53801;SDS011;39709;53.334;6.534;2022-07-23T13:54:42;3.53;;;1.00;;
53801;SDS011;39709;53.334;6.534;2022-07-23T13:57:07;3.70;;;1.00;;
53801;SDS011;39709;53.334;6.534;2022-07-23T13:59:34;3.72;;;0.90;;
53801;SDS011;39709;53.334;6.534;2022-07-23T14:02:01;4.50;;;0.82;;
53801;SDS011;39709;53.334;6.534;2022-07-23T14:04:28;3.43;;;0.93;;
53801;SDS011;39709;53.334;6.534;2022-07-23T14:06:54;3.92;;;0.70;;
53801;SDS011;39709;53.334;6.534;2022-07-23T14:09:20;4.00;;;0.70;;
53801;SDS011;39709;53.334;6.534;2022-07-23T14:11:46;4.82;;;0.80;;
53801;SDS011;39709;53.334;6.534;2022-07-23T14:14:12;4.77;;;0.90;;
53801;SDS011;39709;53.334;6.534;2022-07-23T14:16:37;3.75;;;1.10;;
53801;SDS011;39709;53.334;6.534;2022-07-23T14:19:03;4.53;;;1.00;;
53801;SDS011;39709;53.334;6.534;2022-07-23T14:21:29;6.90;;;0.93;;
53801;SDS011;39709;53.334;6.534;2022-07-23T14:23:54;3.63;;;0.80;;
53801;SDS011;39709;53.334;6.534;2022-07-23T14:26:20;3.55;;;0.90;;
53801;SDS011;39709;53.334;6.534;2022-07-23T14:28:46;4.47;;;0.90;;
53801;SDS011;39709;53.334;6.534;2022-07-23T14:31:12;4.53;;;0.90;;
53801;SDS011;39709;53.334;6.534;2022-07-23T14:33:37;4.17;;;0.80;;
53801;SDS011;39709;53.334;6.534;2022-07-23T14:36:03;4.57;;;0.90;;
53801;SDS011;39709;53.334;6.534;2022-07-23T14:38:29;4.30;;;0.80;;
53801;SDS011;39709;53.334;6.534;2022-07-23T14:40:55;3.30;;;0.77;;
53801;SDS011;39709;53.334;6.534;2022-07-23T14:43:22;4.15;;;0.93;;
53801;SDS011;39709;53.334;6.534;2022-07-23T14:45:48;6.10;;;1.17;;
53801;SDS011;39709;53.334;6.534;2022-07-23T14:48:13;4.53;;;1.00;;
53801;SDS011;39709;53.334;6.534;2022-07-23T14:50:39;4.27;;;1.10;;
53801;SDS011;39709;53.334;6.534;2022-07-23T14:53:05;5.10;;;0.95;;
53801;SDS011;39709;53.334;6.534;2022-07-23T14:55:31;3.90;;;0.90;;
53801;SDS011;39709;53.334;6.534;2022-07-23T14:57:59;3.75;;;0.80;;
53801;SDS011;39709;53.334;6.534;2022-07-23T15:00:25;6.07;;;1.30;;
53801;SDS011;39709;53.334;6.534;2022-07-23T15:02:51;4.13;;;1.20;;
53801;SDS011;39709;53.334;6.534;2022-07-23T15:05:17;2.97;;;1.00;;
53801;SDS011;39709;53.334;6.534;2022-07-23T15:07:43;4.72;;;1.48;;
53801;SDS011;39709;53.334;6.534;2022-07-23T15:10:09;3.80;;;0.97;;
53801;SDS011;39709;53.334;6.534;2022-07-23T15:12:34;4.20;;;1.00;;
53801;SDS011;39709;53.334;6.534;2022-07-23T15:15:00;5.45;;;0.90;;
53801;SDS011;39709;53.334;6.534;2022-07-23T15:17:26;3.80;;;1.10;;
53801;SDS011;39709;53.334;6.534;2022-07-23T15:19:51;4.60;;;1.05;;
53801;SDS011;39709;53.334;6.534;2022-07-23T15:22:17;4.80;;;1.10;;
53801;SDS011;39709;53.334;6.534;2022-07-23T15:24:43;3.65;;;1.13;;
53801;SDS011;39709;53.334;6.534;2022-07-23T15:27:09;4.33;;;1.00;;
53801;SDS011;39709;53.334;6.534;2022-07-23T15:29:35;3.63;;;0.90;;
53801;SDS011;39709;53.334;6.534;2022-07-23T15:32:01;4.00;;;0.80;;
53801;SDS011;39709;53.334;6.534;2022-07-23T15:34:27;5.73;;;1.10;;
53801;SDS011;39709;53.334;6.534;2022-07-23T15:36:53;3.00;;;0.80;;
53801;SDS011;39709;53.334;6.534;2022-07-23T15:39:19;4.78;;;1.15;;
53801;SDS011;39709;53.334;6.534;2022-07-23T15:41:44;3.23;;;1.00;;